createdAt,value
2023-02-24T14:51:40.696Z,20.70
2023-02-24T14:54:14.339Z,13.37
2023-02-24T14:56:45.687Z,15.03
2023-02-24T14:59:27.877Z,16.47
2023-02-24T15:01:56.221Z,15.03
2023-02-24T15:04:41.900Z,16.77
2023-02-24T15:07:39.911Z,19.07
2023-02-24T15:10:36.219Z,12.87
2023-02-24T15:13:25.848Z,13.77
2023-02-24T15:15:58.326Z,15.20
2023-02-24T15:18:29.804Z,12.40
2023-02-24T15:21:06.290Z,18.00
2023-02-24T15:23:39.456Z,13.73
2023-02-24T15:26:40.059Z,14.87
2023-02-24T15:29:27.108Z,13.53
2023-02-24T15:32:03.735Z,15.47
2023-02-24T15:34:42.590Z,15.20
2023-02-24T15:37:46.008Z,13.27
2023-02-24T15:40:22.914Z,17.57
2023-02-24T15:43:17.198Z,14.57
2023-02-24T15:45:54.912Z,15.20
2023-02-24T15:48:31.459Z,14.13
2023-02-24T15:51:22.562Z,12.47
2023-02-24T15:54:17.550Z,14.50
2023-02-24T15:57:12.159Z,19.30
2023-02-24T15:59:46.626Z,15.77
2023-02-24T16:02:20.620Z,15.60
2023-02-24T16:04:55.143Z,14.40
2023-02-24T16:07:34.366Z,17.27
2023-02-24T16:10:15.644Z,18.47
2023-02-24T16:12:58.556Z,17.43
2023-02-24T16:15:37.982Z,14.97
2023-02-24T16:18:22.060Z,14.27
2023-02-24T16:21:07.658Z,16.80
2023-02-24T16:23:44.256Z,19.40
2023-02-24T16:26:26.803Z,15.50
2023-02-24T16:29:01.589Z,13.37
2023-02-24T16:31:42.087Z,14.07
2023-02-24T16:34:28.284Z,15.37
2023-02-24T16:37:05.258Z,14.73
2023-02-24T16:39:40.810Z,16.20
2023-02-24T16:42:32.219Z,15.87
2023-02-24T16:45:03.071Z,14.37
2023-02-24T16:47:49.022Z,18.70
2023-02-24T16:50:33.649Z,15.23
2023-02-24T16:53:13.366Z,17.03
2023-02-24T16:55:44.879Z,20.43
2023-02-24T16:58:16.340Z,17.23
2023-02-24T17:01:03.533Z,17.63
2023-02-24T17:03:52.359Z,21.97
2023-02-24T17:06:34.969Z,20.10
2023-02-24T17:09:20.433Z,21.53
2023-02-24T17:11:55.343Z,14.77
2023-02-24T17:14:51.253Z,16.17
2023-02-24T17:17:33.697Z,11.73
2023-02-24T17:20:13.776Z,16.60
2023-02-24T17:22:46.713Z,13.33
2023-02-24T17:25:30.976Z,13.37
2023-02-24T17:27:59.823Z,13.33
2023-02-24T17:30:42.461Z,11.27
2023-02-24T17:33:15.463Z,13.60
2023-02-24T17:35:52.932Z,11.37
2023-02-24T17:38:22.923Z,13.07
2023-02-24T17:41:07.641Z,12.10
2023-02-24T17:43:38.205Z,8.40
2023-02-24T17:46:09.179Z,12.93
2023-02-24T17:48:42.154Z,10.27
2023-02-24T17:51:17.336Z,10.30
2023-02-24T17:53:45.542Z,8.50
2023-02-24T17:56:20.404Z,12.17
2023-02-24T17:58:52.044Z,6.70
2023-02-24T18:01:58.093Z,10.70
2023-02-24T18:04:32.381Z,10.73
2023-02-24T18:07:05.700Z,10.20
2023-02-24T18:09:41.499Z,9.57
2023-02-24T18:12:22.013Z,9.40
2023-02-24T18:15:07.448Z,9.77
2023-02-24T18:17:46.894Z,10.60
2023-02-24T18:20:29.491Z,12.13
2023-02-24T18:23:35.247Z,10.27
2023-02-24T18:29:33.822Z,11.77
2023-02-24T18:32:10.571Z,11.07
2023-02-24T18:34:57.454Z,11.70
2023-02-24T18:37:36.105Z,15.23
2023-02-24T18:40:04.321Z,12.63
2023-02-24T18:42:47.647Z,11.20
2023-02-24T18:45:26.231Z,10.90
2023-02-24T18:47:54.497Z,11.20
2023-02-24T18:50:30.438Z,9.70
2023-02-24T18:53:30.064Z,11.23
2023-02-24T18:56:15.670Z,11.27
2023-02-24T18:58:55.784Z,11.07
2023-02-24T19:01:52.771Z,8.93
2023-02-24T19:04:24.884Z,11.37
2023-02-24T19:06:57.681Z,12.43
2023-02-24T19:09:36.507Z,11.40
2023-02-24T19:12:41.541Z,12.07
2023-02-24T19:15:15.414Z,11.03
2023-02-24T19:17:57.501Z,12.17
2023-02-24T19:20:45.334Z,12.43
2023-02-24T19:23:16.448Z,15.13
2023-02-24T19:25:49.141Z,13.23
2023-02-24T19:28:31.883Z,16.67
2023-02-24T19:31:06.955Z,15.73
2023-02-24T19:33:41.203Z,10.53
2023-02-24T19:36:09.774Z,12.83
2023-02-24T19:38:48.305Z,14.93
2023-02-24T19:41:21.416Z,16.17
2023-02-24T19:43:54.369Z,15.37
2023-02-24T19:46:36.297Z,10.03
2023-02-24T19:49:09.497Z,10.43
2023-02-24T19:51:46.627Z,10.43
2023-02-24T19:54:16.069Z,9.20
2023-02-24T19:57:10.377Z,12.77
2023-02-24T19:59:40.692Z,15.27
2023-02-24T20:02:11.485Z,11.97
2023-02-24T20:04:39.475Z,18.33
2023-02-24T20:07:31.492Z,16.53
2023-02-24T20:10:04.158Z,10.80
2023-02-24T20:12:43.842Z,13.90
2023-02-24T20:15:16.819Z,9.57
2023-02-24T20:18:16.761Z,13.23
2023-02-24T20:20:51.670Z,13.23
2023-02-24T20:23:34.594Z,15.13
2023-02-24T20:26:08.326Z,14.00
2023-02-24T20:28:41.410Z,14.50
2023-02-24T20:31:17.038Z,10.83
2023-02-24T20:33:45.286Z,15.97
2023-02-24T20:36:28.318Z,9.90
2023-02-24T20:39:07.875Z,10.60
2023-02-24T20:41:38.795Z,10.50
2023-02-24T20:44:12.242Z,12.27
2023-02-24T20:46:53.375Z,11.27
2023-02-24T20:49:35.506Z,13.47
2023-02-24T20:52:23.873Z,13.23
2023-02-24T20:54:58.058Z,9.87
2023-02-24T20:57:26.369Z,16.80
2023-02-24T21:00:04.161Z,12.43
2023-02-24T21:02:45.093Z,14.10
2023-02-24T21:05:30.735Z,10.07
2023-02-24T21:08:12.879Z,14.03
2023-02-24T21:10:58.152Z,15.70
2023-02-24T21:13:34.175Z,11.77
2023-02-24T21:16:05.666Z,16.97
2023-02-24T21:18:40.638Z,14.87
2023-02-24T21:21:09.288Z,15.07
2023-02-24T21:23:42.465Z,11.80
2023-02-24T21:26:18.328Z,10.67
2023-02-24T21:28:51.087Z,15.40
2023-02-24T21:31:23.990Z,13.90
2023-02-24T21:33:56.455Z,16.10
2023-02-24T21:36:30.020Z,17.83
2023-02-24T21:39:10.492Z,14.93
2023-02-24T21:41:43.648Z,11.03
2023-02-24T21:44:31.070Z,16.73
2023-02-24T21:47:05.661Z,14.43
2023-02-24T21:49:38.014Z,15.23
2023-02-24T21:52:13.422Z,13.67
2023-02-24T21:54:52.697Z,14.57
2023-02-24T21:57:32.383Z,17.37
2023-02-24T22:00:12.334Z,15.60
2023-02-24T22:03:02.479Z,11.90
2023-02-24T22:05:51.719Z,13.93
2023-02-24T22:08:49.986Z,17.23
2023-02-24T22:11:49.754Z,15.20
2023-02-24T22:14:43.287Z,12.17
2023-02-24T22:17:28.225Z,12.23
2023-02-24T22:20:02.545Z,9.97
2023-02-24T22:22:42.975Z,13.90
2023-02-24T22:25:22.760Z,12.00
2023-02-24T22:28:10.042Z,8.97
2023-02-24T22:30:53.421Z,8.13
2023-02-24T22:33:33.328Z,7.73
2023-02-24T22:36:10.136Z,8.60
2023-02-24T22:38:43.014Z,5.80
2023-02-24T22:41:35.588Z,3.63
2023-02-24T22:44:20.390Z,2.80
2023-02-24T22:47:01.962Z,1.37
2023-02-24T22:49:40.812Z,2.07
2023-02-24T22:52:41.273Z,1.33
2023-02-24T22:55:19.998Z,1.63
2023-02-24T22:57:52.747Z,0.70
2023-02-24T23:00:28.800Z,1.90
2023-02-24T23:03:05.259Z,2.00
2023-02-24T23:05:38.245Z,0.70
2023-02-24T23:08:10.924Z,1.47
2023-02-24T23:10:54.166Z,2.17
2023-02-24T23:13:36.452Z,0.93
2023-02-24T23:19:17.960Z,3.20
2023-02-24T23:22:06.021Z,3.40
2023-02-24T23:24:40.080Z,2.90
2023-02-24T23:27:15.034Z,4.23
2023-02-24T23:29:48.059Z,4.63
2023-02-24T23:32:29.202Z,3.83
2023-02-24T23:35:05.264Z,4.10
2023-02-24T23:37:46.528Z,6.47
2023-02-24T23:40:27.116Z,4.83
2023-02-24T23:43:20.879Z,5.57
2023-02-24T23:46:14.184Z,4.03
2023-02-24T23:48:45.166Z,6.30
2023-02-24T23:51:21.696Z,6.20
2023-02-24T23:54:02.772Z,5.50
2023-02-24T23:56:35.389Z,6.30
2023-02-24T23:59:18.793Z,4.23
